createdAt,value
2019-03-21T00:03:52.196Z,29.80
2019-03-21T00:08:56.202Z,24.47
2019-03-21T00:14:06.938Z,22.75
2019-03-21T00:19:07.776Z,17.77
2019-03-21T00:24:11.294Z,20.92
2019-03-21T00:29:14.680Z,20.40
2019-03-21T00:34:21.778Z,17.73
2019-03-21T00:39:32.657Z,27.35
2019-03-21T00:44:31.375Z,24.90
2019-03-21T00:49:34.875Z,22.67
2019-03-21T00:54:39.700Z,17.02
2019-03-21T00:59:43.010Z,19.80
2019-03-21T01:04:46.386Z,19.85
2019-03-21T01:09:50.553Z,22.93
2019-03-21T01:14:53.943Z,22.20
2019-03-21T01:19:57.260Z,22.45
2019-03-21T01:25:00.642Z,19.10
2019-03-21T01:30:08.136Z,26.12
2019-03-21T01:35:11.693Z,20.43
2019-03-21T01:40:21.053Z,28.95
2019-03-21T01:45:25.666Z,24.85
2019-03-21T01:50:39.420Z,17.77
2019-03-21T01:55:42.774Z,21.23
2019-03-21T02:00:52.080Z,25.32
2019-03-21T02:05:57.134Z,27.40
2019-03-21T02:11:00.428Z,26.97
2019-03-21T02:16:03.839Z,21.62
2019-03-21T02:21:07.211Z,23.30
2019-03-21T02:26:10.509Z,26.42
2019-03-21T02:31:13.812Z,28.45
2019-03-21T02:36:17.202Z,25.75
2019-03-21T02:41:20.493Z,32.50
2019-03-21T02:46:23.888Z,27.58
2019-03-21T02:51:27.218Z,31.33
2019-03-21T02:56:30.715Z,25.95
2019-03-21T03:01:34.464Z,24.15
2019-03-21T03:06:37.857Z,28.30
2019-03-21T03:11:43.303Z,26.25
2019-03-21T03:16:46.644Z,26.80
2019-03-21T03:21:50.027Z,26.68
2019-03-21T03:26:54.478Z,32.85
2019-03-21T03:31:59.144Z,25.57
2019-03-21T03:37:02.506Z,29.02
2019-03-21T03:42:07.318Z,29.15
2019-03-21T03:47:10.668Z,30.17
2019-03-21T03:52:15.278Z,28.40
2019-03-21T03:57:19.896Z,34.48
2019-03-21T04:02:24.000Z,35.17
2019-03-21T04:07:27.383Z,32.90
2019-03-21T04:12:30.895Z,29.25
2019-03-21T04:17:34.898Z,37.10
2019-03-21T04:22:38.272Z,34.48
2019-03-21T04:27:42.318Z,35.65
2019-03-21T04:32:45.801Z,33.55
2019-03-21T04:37:49.113Z,32.30
2019-03-21T04:42:52.426Z,38.35
2019-03-21T04:47:58.654Z,33.40
2019-03-21T04:53:01.959Z,35.25
2019-03-21T04:58:05.338Z,34.05
2019-03-21T05:03:10.867Z,32.03
2019-03-21T05:08:14.233Z,30.45
2019-03-21T05:13:18.997Z,32.70
2019-03-21T05:18:45.549Z,36.73
2019-03-21T05:23:48.941Z,40.33
2019-03-21T05:28:52.303Z,39.00
2019-03-21T05:33:56.243Z,37.73
2019-03-21T05:38:59.711Z,29.85
2019-03-21T05:44:21.574Z,34.53
2019-03-21T05:49:24.941Z,37.38
2019-03-21T05:54:29.926Z,41.75
2019-03-21T05:59:33.951Z,37.50
2019-03-21T06:04:38.245Z,42.67
2019-03-21T06:09:42.319Z,41.35
2019-03-21T06:14:54.488Z,38.73
2019-03-21T06:20:31.955Z,40.98
2019-03-21T06:25:47.333Z,36.63
2019-03-21T06:30:50.756Z,33.80
2019-03-21T06:35:54.250Z,38.25
2019-03-21T06:40:57.921Z,33.30
2019-03-21T06:46:01.313Z,37.58
2019-03-21T06:51:04.971Z,43.00
2019-03-21T06:56:08.300Z,38.70
2019-03-21T07:01:13.194Z,34.60
2019-03-21T07:06:16.625Z,35.52
2019-03-21T07:11:20.698Z,37.15
2019-03-21T07:16:27.085Z,37.53
2019-03-21T07:21:30.506Z,33.67
2019-03-21T07:26:34.404Z,43.63
2019-03-21T07:31:37.784Z,35.83
2019-03-21T07:36:41.090Z,37.28
2019-03-21T07:41:44.555Z,37.93
2019-03-21T07:46:48.223Z,29.48
2019-03-21T07:51:51.615Z,32.93
2019-03-21T07:56:55.145Z,31.12
2019-03-21T08:01:58.516Z,34.92
2019-03-21T08:07:03.103Z,31.75
2019-03-21T08:12:06.470Z,35.63
2019-03-21T08:17:17.592Z,43.02
2019-03-21T08:22:21.088Z,36.42
2019-03-21T08:27:24.499Z,36.98
2019-03-21T08:32:28.263Z,31.50
2019-03-21T08:37:31.767Z,33.65
2019-03-21T08:42:35.887Z,31.70
2019-03-21T08:47:39.745Z,30.97
2019-03-21T08:52:43.054Z,33.98
2019-03-21T08:57:46.414Z,32.88
2019-03-21T09:02:49.728Z,30.95
2019-03-21T09:07:53.987Z,34.55
2019-03-21T09:12:57.519Z,28.17
2019-03-21T09:18:00.962Z,29.48
2019-03-21T09:23:05.461Z,28.80
2019-03-21T09:28:10.001Z,22.40
2019-03-21T09:33:13.314Z,28.10
2019-03-21T09:38:16.668Z,29.40
2019-03-21T09:43:20.067Z,18.62
2019-03-21T09:48:23.511Z,19.57
2019-03-21T09:53:28.022Z,19.02
2019-03-21T09:58:31.371Z,21.12
2019-03-21T10:03:34.828Z,25.25
2019-03-21T10:08:38.992Z,23.12
2019-03-21T10:13:42.392Z,27.90
2019-03-21T10:18:45.775Z,25.17
2019-03-21T10:23:49.104Z,26.73
2019-03-21T10:28:52.614Z,33.35
2019-03-21T10:33:56.011Z,24.50
2019-03-21T10:38:59.444Z,25.92
2019-03-21T10:44:03.132Z,27.30
2019-03-21T10:49:06.419Z,23.32
2019-03-21T10:54:12.246Z,22.15
2019-03-21T10:59:17.667Z,18.95
2019-03-21T11:04:20.648Z,20.55
2019-03-21T11:09:24.026Z,16.45
2019-03-21T11:14:28.268Z,23.60
2019-03-21T11:19:31.614Z,19.92
2019-03-21T11:24:36.014Z,18.65
2019-03-21T11:29:39.411Z,11.97
2019-03-21T11:34:42.946Z,14.13
2019-03-21T11:39:46.325Z,13.08
2019-03-21T11:44:49.888Z,17.52
2019-03-21T11:49:53.285Z,15.65
2019-03-21T11:54:57.022Z,18.95
2019-03-21T12:00:00.539Z,23.73
2019-03-21T12:05:07.945Z,22.00
2019-03-21T12:10:12.229Z,19.92
2019-03-21T12:15:16.095Z,14.85
2019-03-21T12:20:29.896Z,16.25
2019-03-21T12:25:34.351Z,13.08
2019-03-21T12:30:38.990Z,13.50
2019-03-21T12:35:42.385Z,12.93
2019-03-21T12:40:45.771Z,14.00
2019-03-21T12:45:49.636Z,13.98
2019-03-21T12:50:52.957Z,17.87
2019-03-21T12:55:56.537Z,9.30
2019-03-21T13:01:01.278Z,10.38
2019-03-21T13:06:04.731Z,12.10
2019-03-21T13:11:08.404Z,12.65
2019-03-21T13:16:13.464Z,21.02
2019-03-21T13:21:16.923Z,11.48
2019-03-21T13:26:20.205Z,8.88
2019-03-21T13:31:24.340Z,9.55
2019-03-21T13:36:27.748Z,11.97
2019-03-21T13:41:31.188Z,13.43
2019-03-21T13:46:34.722Z,11.53
2019-03-21T13:51:38.453Z,9.63
2019-03-21T13:56:42.785Z,12.30
2019-03-21T14:01:47.727Z,17.10
2019-03-21T14:06:51.109Z,21.23
2019-03-21T14:11:54.676Z,19.75
2019-03-21T14:16:59.598Z,22.05
2019-03-21T14:22:04.049Z,14.53
2019-03-21T14:27:07.359Z,11.90
2019-03-21T14:32:10.753Z,12.47
2019-03-21T14:37:15.989Z,11.40
2019-03-21T14:42:19.352Z,11.88
2019-03-21T14:47:22.708Z,13.60
2019-03-21T14:52:26.011Z,16.95
2019-03-21T14:57:30.922Z,12.50
2019-03-21T15:02:34.438Z,12.07
2019-03-21T15:07:39.592Z,10.78
2019-03-21T15:12:42.945Z,15.25
2019-03-21T15:17:49.226Z,12.82
2019-03-21T15:22:57.023Z,11.70
2019-03-21T15:28:00.031Z,15.05
2019-03-21T15:33:03.697Z,17.82
2019-03-21T15:38:07.781Z,13.40
2019-03-21T15:43:11.241Z,16.73
2019-03-21T15:48:14.646Z,18.30
2019-03-21T15:53:18.004Z,18.40
2019-03-21T15:58:27.864Z,24.50
2019-03-21T16:08:39.785Z,30.25
2019-03-21T16:13:44.796Z,26.55
2019-03-21T16:18:48.112Z,44.38
2019-03-21T16:23:51.589Z,33.90
2019-03-21T16:28:57.673Z,32.30
2019-03-21T16:34:02.300Z,39.03
2019-03-21T16:39:07.187Z,44.65
2019-03-21T16:44:10.504Z,35.95
2019-03-21T16:49:13.800Z,38.83
2019-03-21T16:54:17.783Z,32.00
2019-03-21T16:59:32.176Z,32.60
2019-03-21T17:04:37.275Z,37.00
2019-03-21T17:09:42.599Z,38.23
2019-03-21T17:14:46.460Z,41.80
2019-03-21T17:19:50.593Z,41.30
2019-03-21T17:24:54.295Z,50.05
2019-03-21T17:29:57.708Z,41.95
2019-03-21T17:35:02.900Z,39.18
2019-03-21T17:40:08.170Z,40.58
2019-03-21T17:45:16.378Z,54.13
2019-03-21T17:50:20.273Z,50.25
2019-03-21T17:55:24.584Z,49.38
2019-03-21T18:00:38.457Z,40.98
2019-03-21T18:05:41.871Z,42.13
2019-03-21T18:10:46.050Z,49.95
2019-03-21T18:15:50.873Z,45.95
2019-03-21T18:20:56.327Z,53.10
2019-03-21T18:26:00.257Z,55.43
2019-03-21T18:31:04.256Z,42.80
2019-03-21T18:36:09.327Z,41.42
2019-03-21T18:41:15.431Z,43.65
2019-03-21T18:46:18.898Z,45.75
2019-03-21T18:51:22.336Z,45.33
2019-03-21T18:56:27.586Z,46.02
2019-03-21T19:01:57.888Z,48.05
2019-03-21T19:06:53.550Z,47.70
2019-03-21T19:11:58.499Z,40.10
2019-03-21T19:17:05.785Z,43.70
2019-03-21T19:22:20.946Z,49.73
2019-03-21T19:27:26.154Z,45.48
2019-03-21T19:32:31.485Z,48.42
2019-03-21T19:37:35.996Z,51.42
2019-03-21T19:42:41.475Z,50.30
2019-03-21T19:47:45.705Z,46.28
2019-03-21T19:52:51.290Z,47.23
2019-03-21T19:57:56.693Z,46.28
2019-03-21T20:03:00.152Z,50.80
2019-03-21T20:13:40.798Z,43.48
2019-03-21T20:29:59.535Z,52.62
2019-03-21T20:35:07.956Z,44.63
2019-03-21T20:40:20.575Z,47.50
2019-03-21T20:45:31.442Z,43.42
2019-03-21T20:50:40.789Z,47.48
2019-03-21T20:55:53.603Z,45.43
2019-03-21T21:00:54.042Z,48.15
2019-03-21T21:05:59.277Z,46.90
2019-03-21T21:11:03.161Z,49.98
2019-03-21T21:16:09.044Z,47.75
2019-03-21T21:21:12.698Z,48.68
2019-03-21T21:26:16.164Z,51.45
2019-03-21T21:31:20.448Z,46.95
2019-03-21T21:36:24.848Z,51.35
2019-03-21T21:41:30.729Z,56.25
2019-03-21T21:46:35.498Z,49.58
2019-03-21T21:51:40.874Z,50.75
2019-03-21T21:56:47.772Z,48.58
2019-03-21T22:01:56.403Z,53.90
2019-03-21T22:07:01.485Z,51.10
2019-03-21T22:12:04.966Z,53.75
2019-03-21T22:17:09.111Z,48.60
2019-03-21T22:22:12.485Z,52.08
2019-03-21T22:27:20.155Z,56.13
2019-03-21T22:32:25.047Z,54.35
2019-03-21T22:37:31.648Z,59.05
2019-03-21T22:42:39.311Z,61.50
2019-03-21T22:47:42.751Z,57.95
2019-03-21T22:52:46.869Z,57.30
2019-03-21T22:57:50.324Z,56.85
2019-03-21T23:02:54.962Z,51.83
2019-03-21T23:07:59.255Z,52.73
2019-03-21T23:13:03.021Z,60.90
2019-03-21T23:18:10.254Z,54.80
2019-03-21T23:23:12.871Z,54.88
2019-03-21T23:28:19.598Z,56.98
2019-03-21T23:33:22.439Z,54.45
2019-03-21T23:38:25.986Z,54.48
2019-03-21T23:43:29.434Z,55.23
2019-03-21T23:48:33.616Z,55.63
2019-03-21T23:53:38.952Z,54.25
2019-03-21T23:58:42.802Z,57.67
